Site:       
  Group:  
  From:      To:        
   
Sensor Name: Furnace      Latitude:-9.57320000 , Longitude:53.92290000
Please click on the Table Headers to view a Graph of the Observations.
TimeMax. Temp. (°C)Min. Temp. (°C)Mean Temp. (°C)Tot. Rain (mm)Mean Wind (kn)Max Gust (kn)Solar Rad. (J\cm2)Humidity (%)Atmos. Press. (mb)Temp. 5cm (°C)Temp. 10cm (°C)Temp. 20cm (°C)Temp. 30cm (°C)Temp. 50cm (°C)Temp. 100cm (°C)Grass Min. (°C)
17/03/2019 23:00:007.20 6.30 6.70 0.20 10.40 19.50 0.00 -999.00 1016.10 6.30 6.40 7.00 7.10 7.20 7.80 5.20
17/03/2019 22:00:007.10 6.60 6.80 0.00 11.60 19.90 0.00 -999.00 1015.60 6.50 6.60 7.20 7.20 7.20 7.80 5.00
17/03/2019 21:00:007.20 6.70 6.90 0.00 14.50 26.00 0.00 -999.00 1015.30 6.80 7.00 7.30 7.20 7.10 7.80 5.00
17/03/2019 20:00:007.50 6.20 6.90 0.30 12.30 22.30 0.00 -999.00 1015.20 7.20 7.40 7.30 7.10 7.10 7.80 4.70
17/03/2019 19:00:007.70 7.20 7.40 0.00 12.30 20.90 3.50 -999.00 1014.40 7.70 7.90 7.30 7.10 7.10 7.80 5.10
17/03/2019 18:00:008.10 7.40 7.80 0.50 14.80 24.60 36.30 -999.00 1013.80 8.00 8.10 7.20 7.00 7.10 7.80 6.50
17/03/2019 17:00:009.00 8.00 8.50 0.10 17.10 29.10 72.50 -999.00 1012.60 8.30 8.30 7.00 6.90 7.10 7.80 7.70
17/03/2019 16:00:009.90 8.60 9.20 0.20 18.20 28.70 107.10 -999.00 1011.30 8.30 8.20 6.80 6.80 7.10 7.80 7.90
17/03/2019 15:00:009.30 8.20 8.70 0.50 19.20 30.30 98.60 -999.00 1010.30 8.10 8.00 6.50 6.60 7.20 7.80 7.10
17/03/2019 14:00:009.20 7.40 8.30 2.20 18.00 33.60 97.20 -999.00 1009.10 8.10 7.80 6.20 6.50 7.20 7.80 5.90
17/03/2019 13:00:009.80 7.50 8.70 0.20 20.80 33.80 145.00 -999.00 1007.80 7.50 7.20 5.90 6.40 7.20 7.80 6.60
17/03/2019 12:00:009.50 7.60 8.60 0.80 23.10 36.50 139.00 -999.00 1006.20 6.60 6.30 5.60 6.40 7.30 7.80 6.60
17/03/2019 11:00:009.60 7.30 8.40 0.90 23.60 39.20 91.20 -999.00 1004.70 5.60 5.30 5.50 6.40 7.30 7.80 6.10
17/03/2019 10:00:007.50 6.20 6.80 1.70 24.60 40.60 41.80 -999.00 1003.50 4.80 4.70 5.40 6.40 7.30 7.80 5.20
17/03/2019 09:00:007.50 5.90 6.70 1.30 23.80 51.90 25.70 -999.00 1002.40 4.30 4.30 5.40 6.40 7.40 7.80 4.50
17/03/2019 08:00:007.20 5.40 6.30 0.00 22.70 37.60 22.80 -999.00 1001.30 4.00 4.10 5.50 6.50 7.40 7.80 3.20
17/03/2019 07:00:005.70 4.60 5.20 0.10 16.70 31.60 0.10 -999.00 1000.70 4.00 4.10 5.60 6.60 7.50 7.80 3.00
17/03/2019 06:00:005.80 5.00 5.40 0.00 18.40 28.80 0.00 -999.00 999.60 3.90 4.10 5.80 6.70 7.50 7.80 2.80
17/03/2019 05:00:005.10 4.60 4.90 0.10 17.30 28.40 0.00 -999.00 998.70 4.10 4.20 5.90 6.80 7.50 7.80 2.50
17/03/2019 04:00:005.30 4.70 5.00 0.00 17.70 28.80 0.00 -999.00 997.80 4.20 4.40 6.10 7.00 7.60 7.80 2.50
17/03/2019 03:00:005.00 2.50 3.80 0.00 13.60 26.00 0.00 -999.00 997.70 4.30 4.50 6.30 7.10 7.60 7.80 1.40
17/03/2019 02:00:004.20 2.20 3.20 0.50 12.00 21.50 0.00 -999.00 997.50 4.50 4.70 6.50 7.20 7.60 7.80 0.60
17/03/2019 01:00:003.70 1.80 2.70 0.30 12.40 26.70 0.00 -999.00 997.30 4.60 4.90 6.80 7.30 7.60 7.70 0.70
17/03/2019 00:00:003.50 1.90 2.70 0.10 10.90 25.80 0.00 -999.00 997.10 4.90 5.20 7.00 7.50 7.70 7.70 0.90
16/03/2019 23:00:004.00 3.50 3.70 0.20 16.50 29.20 0.00 -999.00 996.40 5.30 5.60 7.30 7.60 7.70 7.70 -999.00
16/03/2019 22:00:004.70 3.70 4.20 0.20 15.90 29.70 0.00 -999.00 995.60 5.70 6.00 7.50 7.70 7.70 7.70 -999.00